Chilcoot, CA

7:57 AM PDT on May 23, 2015 (GMT -0700)
Reno-Tahoe International | | Change Station
CLOSE
Current Station
Airport
Location: Reno,
Elevation: 4400 ft
Nearby Weather Stations

Elev 4400 ft 39.51 °N, 119.77 °W | Updated 1 hour ago

Overcast
Overcast
52 °F
Feels Like 52 °F
N
4
Wind Variable Wind from SSE

Today
High -- | Low -- °F
--% Chance of Precip.
Yesterday
High -- | Low -- °F
Precip. -- in
5:39 AM 8:15 PM
Waxing Crescent, 30% visible
Pressure 29.97 in
Visibility 10.0 miles
Clouds Few 3500 ft
Mostly Cloudy 5000 ft
Mostly Cloudy 7000 ft
Overcast 13000 ft
Dew Point 49 °F
Humidity 89%
Rainfall 0.01 in
Snow Depth Not available.
UV 0 out of 12
Pollen 6.20 out of 12
Air Quality Not available.
Flu Activity Sporadic
METAR KRNO 231355Z 16003KT 10SM FEW035 BKN050 BKN070 OVC130 11/09 A3004 RMK AO2 SLP147 MTN TOPS OBSCD DSNT SE SW-NW T01110094

More Conditions Fewer Conditions

Pressure 29.97 in
Visibility 10.0 miles
Clouds Few 3500 ft
Mostly Cloudy 5000 ft
Mostly Cloudy 7000 ft
Overcast 13000 ft
Dew Point 49 °F
Humidity 89%
Rainfall 0.01 in
Snow Depth Not available.
UV 0 out of 12
Pollen 6.20 out of 12
Air Quality Not available.
Flu Activity Sporadic
METAR KRNO 231355Z 16003KT 10SM FEW035 BKN050 BKN070 OVC130 11/09 A3004 RMK AO2 SLP147 MTN TOPS OBSCD DSNT SE SW-NW T01110094

More Conditions Fewer Conditions

10-Day Weather Forecast

Almanac

Astronomy

May. 23, 2015 Rise Set
Actual Time
Civil Twilight
Nautical Twilight
Astronomical Twilight
Moon
Length of Visible Light
Length of Day
Tomorrow will be .
, % of the Moon is Illuminated

Today's Extremes

State Highs State Lows

Community

WunderPhotos

Upload Photos

1,823,480 photos uploaded!

WunderBlogs® & News

Nearby

Air Quality

  Air Quality AQ Index Pollutant
Not available.

Snow Depth

Station Depth Elevation

Earthquake Activity

City Distance Mag. Time & Date
Minimum magnitude displayed is 2.5.

Coastal Water Temperatures

Place Temperature

Stations

Nearby Weather Stations

Station Location Temp. Windchill Dew Point Humidity Wind Precip. Elev Updated Type